createdAt,value
2022-10-16T00:01:32.106Z,101502.39
2022-10-16T00:04:00.514Z,101500.59
2022-10-16T00:06:28.833Z,101504.81
2022-10-16T00:08:56.741Z,101507.30
2022-10-16T00:11:29.952Z,101502.06
2022-10-16T00:13:59.602Z,101504.91
2022-10-16T00:16:27.733Z,101506.58
2022-10-16T00:18:55.770Z,101494.64
2022-10-16T00:21:25.340Z,101492.71
2022-10-16T00:23:57.314Z,101506.58
2022-10-16T00:26:25.254Z,101500.85
2022-10-16T00:28:53.290Z,101506.58
2022-10-16T00:31:22.249Z,101495.10
2022-10-16T00:33:50.040Z,101497.52
2022-10-16T00:36:19.669Z,101493.79
2022-10-16T00:38:47.462Z,101501.57
2022-10-16T00:41:17.048Z,101487.58
2022-10-16T00:43:52.373Z,101478.95
2022-10-16T00:46:22.643Z,101483.00
2022-10-16T00:49:02.762Z,101489.61
2022-10-16T00:51:34.036Z,101488.52
2022-10-16T00:54:02.481Z,101488.52
2022-10-16T00:56:30.716Z,101496.44
2022-10-16T00:58:58.595Z,101491.05
2022-10-16T01:01:26.451Z,101493.92
2022-10-16T01:03:54.245Z,101491.05
2022-10-16T01:06:29.234Z,101491.89
2022-10-16T01:09:22.559Z,101487.80
2022-10-16T01:12:23.201Z,101504.55
2022-10-16T01:14:54.338Z,101504.91
2022-10-16T01:17:33.894Z,101501.57
2022-10-16T01:20:32.728Z,101497.52
2022-10-16T01:23:18.286Z,101499.05
2022-10-16T01:26:22.710Z,101504.41
2022-10-16T01:29:00.085Z,101500.40
2022-10-16T01:31:29.661Z,101499.05
2022-10-16T01:34:25.301Z,101496.18
2022-10-16T01:36:59.036Z,101502.39
2022-10-16T01:39:28.651Z,101496.63
2022-10-16T01:42:21.419Z,101500.85
2022-10-16T01:44:49.491Z,101504.55
2022-10-16T01:47:17.247Z,101510.79
2022-10-16T01:49:45.063Z,101515.34
2022-10-16T01:52:15.513Z,101513.31
2022-10-16T01:54:44.508Z,101515.47
2022-10-16T01:57:14.678Z,101518.34
2022-10-16T01:59:48.326Z,101521.68
2022-10-16T02:02:16.335Z,101519.30
2022-10-16T02:04:47.937Z,101515.93
2022-10-16T02:07:16.114Z,101511.02
2022-10-16T02:09:43.915Z,101510.70
2022-10-16T02:12:22.079Z,101510.20
2022-10-16T02:14:49.857Z,101515.60
2022-10-16T02:17:19.218Z,101515.93
2022-10-16T02:19:47.185Z,101518.94
2022-10-16T02:22:21.499Z,101509.98
2022-10-16T02:24:55.238Z,101509.98
2022-10-16T02:27:41.077Z,101523.84
2022-10-16T02:30:10.337Z,101514.06
2022-10-16T02:32:40.375Z,101503.73
2022-10-16T02:35:08.473Z,101522.99
2022-10-16T02:37:36.221Z,101526.72
2022-10-16T02:40:04.862Z,101514.39
2022-10-16T02:42:37.173Z,101497.87
2022-10-16T02:45:06.134Z,101503.60
2022-10-16T02:47:33.928Z,101517.49
2022-10-16T02:50:01.789Z,101523.22
2022-10-16T02:52:29.750Z,101522.04
2022-10-16T02:54:57.731Z,101520.34
2022-10-16T02:57:25.835Z,101524.10
2022-10-16T02:59:53.842Z,101530.90
2022-10-16T03:02:21.680Z,101529.56
2022-10-16T03:04:49.398Z,101524.91
2022-10-16T03:07:17.163Z,101506.34
2022-10-16T03:09:45.051Z,101507.20
2022-10-16T03:12:14.238Z,101513.77
2022-10-16T03:14:42.346Z,101502.75
2022-10-16T03:17:10.146Z,101492.48
2022-10-16T03:19:38.051Z,101494.87
2022-10-16T03:22:05.896Z,101493.66
2022-10-16T03:24:33.588Z,101491.14
2022-10-16T03:27:01.369Z,101487.91
2022-10-16T03:29:31.493Z,101505.13
2022-10-16T03:31:59.332Z,101517.95
2022-10-16T03:34:27.690Z,101523.35
2022-10-16T03:36:55.530Z,101521.65
2022-10-16T03:39:23.333Z,101519.88
2022-10-16T03:41:51.041Z,101510.89
2022-10-16T03:44:18.856Z,101516.16
2022-10-16T03:46:46.617Z,101519.75
2022-10-16T03:49:14.458Z,101528.35
2022-10-16T03:51:42.212Z,101536.82
2022-10-16T03:54:09.937Z,101544.96
2022-10-16T03:56:37.715Z,101533.95
2022-10-16T03:59:05.441Z,101548.69
2022-10-16T04:01:33.211Z,101545.32
2022-10-16T04:04:00.974Z,101546.50
2022-10-16T04:06:28.704Z,101556.34
2022-10-16T04:08:56.487Z,101551.76
2022-10-16T04:11:24.347Z,101555.13
2022-10-16T04:13:52.114Z,101558.01
2022-10-16T04:16:19.825Z,101555.13
2022-10-16T04:18:47.614Z,101548.69
2022-10-16T04:21:15.336Z,101543.42
2022-10-16T04:23:43.877Z,101551.17
2022-10-16T04:26:12.606Z,101562.65
2022-10-16T04:28:40.469Z,101557.05
2022-10-16T04:31:08.647Z,101555.49
2022-10-16T04:33:36.377Z,101549.90
2022-10-16T04:36:04.652Z,101555.65
2022-10-16T04:38:32.656Z,101551.47
2022-10-16T04:41:00.552Z,101552.28
2022-10-16T04:45:57.070Z,101565.43
2022-10-16T04:48:24.861Z,101564.74
2022-10-16T04:50:54.543Z,101565.72
2022-10-16T04:53:23.240Z,101562.84
2022-10-16T04:55:51.154Z,101566.18
2022-10-16T04:58:19.768Z,101567.52
2022-10-16T05:00:48.965Z,101567.52
2022-10-16T05:03:16.882Z,101570.50
2022-10-16T05:05:46.617Z,101578.77
2022-10-16T05:08:15.411Z,101579.26
2022-10-16T05:10:46.292Z,101582.10
2022-10-16T05:13:14.123Z,101576.97
2022-10-16T05:15:42.102Z,101582.23
2022-10-16T05:18:10.749Z,101580.34
2022-10-16T05:20:38.451Z,101570.40
2022-10-16T05:23:06.238Z,101575.80
2022-10-16T05:25:34.033Z,101572.91
2022-10-16T05:28:01.811Z,101571.09
2022-10-16T05:30:29.576Z,101572.16
2022-10-16T05:33:03.210Z,101568.93
2022-10-16T05:35:30.962Z,101575.50
2022-10-16T05:37:58.728Z,101569.77
2022-10-16T05:40:26.488Z,101563.20
2022-10-16T05:42:57.674Z,101567.72
2022-10-16T05:45:25.503Z,101562.35
2022-10-16T05:47:53.451Z,101579.59
2022-10-16T05:50:21.265Z,101586.38
2022-10-16T05:52:49.069Z,101588.09
2022-10-16T05:55:17.668Z,101596.20
2022-10-16T05:57:45.403Z,101601.10
2022-10-16T06:00:13.367Z,101605.32
2022-10-16T06:02:41.159Z,101612.22
2022-10-16T06:05:08.917Z,101614.24
2022-10-16T06:07:37.989Z,101614.77
2022-10-16T06:10:06.507Z,101611.04
2022-10-16T06:12:34.336Z,101612.58
2022-10-16T06:15:02.065Z,101616.30
2022-10-16T06:17:29.990Z,101610.74
2022-10-16T06:19:57.738Z,101614.51
2022-10-16T06:22:25.464Z,101615.32
2022-10-16T06:24:53.223Z,101614.96
2022-10-16T06:27:21.012Z,101619.54
2022-10-16T06:29:48.854Z,101622.88
2022-10-16T06:32:16.611Z,101627.06
2022-10-16T06:34:44.383Z,101629.25
2022-10-16T06:37:12.096Z,101626.87
2022-10-16T06:39:39.840Z,101626.02
2022-10-16T06:42:07.587Z,101621.11
2022-10-16T06:44:35.348Z,101618.59
2022-10-16T06:47:03.188Z,101626.51
2022-10-16T06:49:31.088Z,101636.45
2022-10-16T06:51:58.870Z,101636.94
2022-10-16T06:54:26.596Z,101646.19
2022-10-16T06:56:56.254Z,101645.93
2022-10-16T06:59:24.135Z,101656.00
2022-10-16T07:01:51.951Z,101661.03
2022-10-16T07:04:19.873Z,101666.07
2022-10-16T07:06:48.069Z,101671.10
2022-10-16T07:09:15.887Z,101681.08
2022-10-16T07:11:43.635Z,101681.20
2022-10-16T07:14:19.042Z,101686.24
2022-10-16T07:16:47.382Z,101687.05
2022-10-16T07:19:16.944Z,101702.62
2022-10-16T07:21:44.810Z,101703.83
2022-10-16T07:24:17.436Z,101713.64
2022-10-16T07:26:46.404Z,101707.56
2022-10-16T07:29:19.108Z,101709.72
2022-10-16T07:31:46.979Z,101711.38
2022-10-16T07:34:15.731Z,101704.81
2022-10-16T07:36:43.551Z,101710.93
2022-10-16T07:39:11.368Z,101722.41
2022-10-16T07:41:39.228Z,101721.20
2022-10-16T07:44:07.110Z,101712.20
2022-10-16T07:46:36.215Z,101708.05
2022-10-16T07:49:05.230Z,101702.42
2022-10-16T07:51:33.055Z,101710.96
2022-10-16T07:54:00.901Z,101726.55
2022-10-16T07:56:28.912Z,101726.23
2022-10-16T07:58:58.327Z,101732.08
2022-10-16T08:01:26.089Z,101749.12
2022-10-16T08:03:54.132Z,101753.46
2022-10-16T12:19:21.936Z,101737.84
2022-10-16T12:21:49.728Z,101738.55
2022-10-16T12:24:33.577Z,101731.43
2022-10-16T12:27:01.513Z,101727.21
2022-10-16T12:29:46.518Z,101733.00
2022-10-16T12:32:47.319Z,101726.75
2022-10-16T12:35:24.259Z,101729.34
2022-10-16T12:37:52.648Z,101728.16
2022-10-16T12:40:33.450Z,101721.95
2022-10-16T12:43:01.422Z,101721.06
2022-10-16T12:45:33.974Z,101716.52
2022-10-16T12:48:03.223Z,101713.70
2022-10-16T12:50:33.970Z,101710.01
2022-10-16T12:53:02.617Z,101706.71
2022-10-16T12:55:36.173Z,101705.07
2022-10-16T12:58:46.914Z,101708.41
2022-10-16T13:01:19.898Z,101700.56
2022-10-16T13:03:50.136Z,101708.02
2022-10-16T13:06:26.659Z,101708.02
2022-10-16T13:08:57.521Z,101714.30
2022-10-16T13:11:58.995Z,101708.90
2022-10-16T13:14:45.079Z,101712.63
2022-10-16T13:17:39.332Z,101714.30
2022-10-16T13:20:13.019Z,101712.63
2022-10-16T13:23:02.078Z,101707.20
2022-10-16T13:25:33.277Z,101710.53
2022-10-16T13:28:06.756Z,101714.23
2022-10-16T13:30:40.444Z,101704.68
2022-10-16T13:33:31.058Z,101705.50
2022-10-16T13:35:59.029Z,101703.80
2022-10-16T13:38:36.790Z,101705.89
2022-10-16T13:41:18.146Z,101704.62
2022-10-16T13:43:48.630Z,101713.34
2022-10-16T13:46:20.533Z,101715.44
2022-10-16T13:49:12.867Z,101712.53
2022-10-16T13:51:40.667Z,101718.35
2022-10-16T13:54:13.612Z,101711.29
2022-10-16T13:56:42.441Z,101726.66
2022-10-16T13:59:25.774Z,101721.20
2022-10-16T14:01:56.025Z,101721.16
2022-10-16T14:04:23.840Z,101723.16
2022-10-16T14:06:52.262Z,101726.85
2022-10-16T14:09:28.484Z,101718.09
2022-10-16T14:12:01.475Z,101717.63
2022-10-16T14:14:31.480Z,101720.48
2022-10-16T14:16:59.245Z,101722.96
2022-10-16T14:19:30.698Z,101717.17
2022-10-16T14:21:58.632Z,101715.08
2022-10-16T14:24:32.051Z,101722.50
2022-10-16T14:27:00.035Z,101727.47
2022-10-16T14:29:28.680Z,101719.55
2022-10-16T14:32:03.433Z,101720.41
2022-10-16T14:34:34.864Z,101719.95
2022-10-16T14:37:21.637Z,101719.10
2022-10-16T14:39:53.406Z,101712.49
2022-10-16T14:42:22.196Z,101724.10
2022-10-16T14:44:50.879Z,101718.67
2022-10-16T14:47:24.622Z,101716.19
2022-10-16T14:49:58.036Z,101716.19
2022-10-16T14:52:25.771Z,101715.41
2022-10-16T14:54:56.769Z,101720.77
2022-10-16T14:57:26.263Z,101714.55
2022-10-16T14:59:54.183Z,101717.86
2022-10-16T15:02:33.254Z,101722.83
2022-10-16T15:05:06.700Z,101711.19
2022-10-16T15:07:34.459Z,101709.95
2022-10-16T15:10:02.331Z,101720.28
2022-10-16T15:12:30.143Z,101712.79
2022-10-16T15:14:57.885Z,101715.18
2022-10-16T15:17:25.880Z,101720.90
2022-10-16T15:19:53.773Z,101717.04
2022-10-16T15:22:21.588Z,101720.34
2022-10-16T15:24:49.424Z,101717.40
2022-10-16T15:27:17.223Z,101719.79
2022-10-16T15:29:45.019Z,101722.63
2022-10-16T15:32:12.950Z,101723.35
2022-10-16T15:34:40.788Z,101716.65
2022-10-16T15:37:08.535Z,101719.04
2022-10-16T15:39:41.229Z,101731.88
2022-10-16T15:42:09.581Z,101739.24
2022-10-16T15:44:37.460Z,101734.17
2022-10-16T15:47:05.285Z,101740.32
2022-10-16T15:49:32.968Z,101740.62
2022-10-16T15:52:00.902Z,101748.43
2022-10-16T15:54:28.655Z,101748.73
2022-10-16T15:56:56.634Z,101748.16
2022-10-16T15:59:24.466Z,101751.02
2022-10-16T16:01:52.435Z,101750.06
2022-10-16T16:07:09.595Z,101761.97
2022-10-16T16:09:37.429Z,101753.10
2022-10-16T16:12:05.640Z,101755.79
2022-10-16T16:14:33.600Z,101758.99
2022-10-16T16:17:01.409Z,101760.88
2022-10-16T16:19:29.348Z,101754.97
2022-10-16T16:21:57.272Z,101770.56
2022-10-16T16:24:25.140Z,101767.98
2022-10-16T16:26:53.133Z,101768.38
2022-10-16T16:29:20.909Z,101767.55
2022-10-16T16:31:49.203Z,101766.61
2022-10-16T16:34:17.042Z,101778.54
2022-10-16T16:36:44.845Z,101775.96
2022-10-16T16:39:12.904Z,101776.25
2022-10-16T16:41:40.744Z,101784.43
2022-10-16T16:44:10.718Z,101793.81
2022-10-16T16:46:38.459Z,101789.13
2022-10-16T16:49:06.271Z,101798.48
2022-10-16T16:51:37.014Z,101805.88
2022-10-16T16:54:09.033Z,101804.50
2022-10-16T16:56:36.846Z,101805.16
2022-10-16T16:59:04.765Z,101806.27
2022-10-16T17:01:33.445Z,101812.74
2022-10-16T17:04:01.716Z,101822.06
2022-10-16T17:06:31.554Z,101824.05
2022-10-16T17:08:59.698Z,101829.02
2022-10-16T17:11:28.342Z,101838.73
2022-10-16T17:13:57.537Z,101844.30
2022-10-16T17:16:36.529Z,101844.49
2022-10-16T17:19:05.569Z,101848.80
2022-10-16T17:21:34.124Z,101863.55
2022-10-16T17:24:02.496Z,101862.51
2022-10-16T17:26:30.293Z,101863.16
2022-10-16T17:28:59.924Z,101864.63
2022-10-16T17:31:29.799Z,101876.86
2022-10-16T17:33:57.793Z,101876.30
2022-10-16T17:36:25.750Z,101880.59
2022-10-16T17:38:53.516Z,101883.73
2022-10-16T17:41:25.234Z,101884.05
2022-10-16T17:43:53.400Z,101891.31
2022-10-16T17:46:22.315Z,101895.66
2022-10-16T17:48:51.606Z,101897.13
2022-10-16T17:51:20.584Z,101901.88
2022-10-16T17:53:55.540Z,101896.74
2022-10-16T17:56:25.324Z,101903.64
2022-10-16T17:58:57.886Z,101902.20
2022-10-16T18:01:30.139Z,101911.13
2022-10-16T18:04:02.987Z,101917.53
2022-10-16T18:06:30.833Z,101917.27
2022-10-16T18:08:58.805Z,101927.38
2022-10-16T18:11:26.633Z,101923.95
2022-10-16T18:13:57.729Z,101932.45
2022-10-16T18:16:25.856Z,101935.13
2022-10-16T18:18:53.674Z,101933.69
2022-10-16T18:21:21.561Z,101937.80
2022-10-16T18:23:51.893Z,101938.03
2022-10-16T18:26:20.521Z,101932.90
2022-10-16T18:28:48.424Z,101944.67
2022-10-16T18:31:17.103Z,101945.75
2022-10-16T18:33:54.355Z,101940.62
2022-10-16T18:36:27.422Z,101939.18
2022-10-16T18:38:55.119Z,101947.22
2022-10-16T18:41:23.108Z,101947.95
2022-10-16T18:43:50.838Z,101951.05
2022-10-16T18:46:20.385Z,101952.48
2022-10-16T18:48:48.579Z,101950.69
2022-10-16T18:51:30.907Z,101949.38
2022-10-16T18:54:01.266Z,101956.57
2022-10-16T18:56:30.279Z,101961.34
2022-10-16T18:59:00.472Z,101967.36
2022-10-16T19:01:29.637Z,101961.41
2022-10-16T19:04:02.681Z,101961.28
2022-10-16T19:06:30.594Z,101967.30
2022-10-16T19:08:58.500Z,101972.56
2022-10-16T19:11:26.687Z,101967.40
2022-10-16T19:13:56.194Z,101975.05
2022-10-16T19:16:26.331Z,101976.62
2022-10-16T19:18:55.447Z,101972.76
2022-10-16T19:21:23.229Z,101980.93
2022-10-16T19:23:55.051Z,101981.12
2022-10-16T19:26:23.089Z,101978.45
2022-10-16T19:28:51.945Z,101985.28
2022-10-16T19:31:21.504Z,101990.94
2022-10-16T19:33:51.905Z,101988.75
2022-10-16T19:36:27.008Z,101994.01
2022-10-16T19:38:59.225Z,101991.00
2022-10-16T19:41:27.124Z,101995.41
2022-10-16T19:43:55.272Z,101992.05
2022-10-16T19:46:25.497Z,102001.37
2022-10-16T19:48:59.915Z,102002.22
2022-10-16T19:51:27.914Z,102007.84
2022-10-16T19:53:57.650Z,102008.92
2022-10-16T19:56:26.206Z,102016.21
2022-10-16T19:58:54.290Z,102015.23
2022-10-16T20:01:22.143Z,102017.09
2022-10-16T20:03:50.199Z,102020.66
2022-10-16T20:06:18.213Z,102021.05
2022-10-16T20:08:46.923Z,102027.49
2022-10-16T20:11:22.385Z,102024.81
2022-10-16T20:13:50.303Z,102024.32
2022-10-16T20:16:20.191Z,102019.74
2022-10-16T20:18:49.014Z,102023.02
2022-10-16T20:21:18.717Z,102033.15
2022-10-16T20:23:49.656Z,102030.27
2022-10-16T20:26:18.085Z,102022.00
2022-10-16T20:28:45.908Z,102019.94
2022-10-16T20:31:19.411Z,102020.46
2022-10-16T20:33:47.148Z,102030.56
2022-10-16T20:36:15.724Z,102033.93
2022-10-16T20:38:43.859Z,102028.38
2022-10-16T20:41:11.922Z,102030.63
2022-10-16T20:43:44.686Z,102038.77
2022-10-16T20:46:16.404Z,102042.47
2022-10-16T20:48:48.003Z,102045.21
2022-10-16T20:51:17.825Z,102050.09
2022-10-16T20:53:47.610Z,102057.70
2022-10-16T20:56:17.094Z,102062.97
2022-10-16T20:58:45.433Z,102064.50
2022-10-16T21:01:18.284Z,102068.91
2022-10-16T21:03:46.391Z,102066.59
2022-10-16T21:06:14.094Z,102078.10
2022-10-16T21:08:42.831Z,102069.48
2022-10-16T21:11:12.289Z,102075.39
2022-10-16T21:13:40.872Z,102077.59
2022-10-16T21:16:09.252Z,102080.79
2022-10-16T21:18:39.684Z,102087.75
2022-10-16T21:21:09.956Z,102095.01
2022-10-16T21:23:37.898Z,102099.42
2022-10-16T21:26:05.663Z,102099.26
2022-10-16T21:28:33.702Z,102103.67
2022-10-16T21:31:03.139Z,102104.85
2022-10-16T21:33:32.968Z,102106.39
2022-10-16T21:36:02.784Z,102098.45
2022-10-16T21:38:30.457Z,102103.22
2022-10-16T21:40:58.159Z,102112.14
2022-10-16T21:43:25.918Z,102115.38
2022-10-16T21:45:53.647Z,102116.06
2022-10-16T21:48:21.414Z,102112.37
2022-10-16T21:50:49.674Z,102114.73
2022-10-16T21:53:17.374Z,102124.86
2022-10-16T21:55:45.155Z,102123.88
2022-10-16T21:58:12.899Z,102126.23
2022-10-16T22:00:40.616Z,102122.70
2022-10-16T22:03:08.370Z,102122.90
2022-10-16T22:05:36.077Z,102125.61
2022-10-16T22:08:03.922Z,102117.66
2022-10-16T22:10:32.580Z,102119.01
2022-10-16T22:13:00.312Z,102116.82
2022-10-16T22:15:28.142Z,102126.10
2022-10-16T22:17:55.840Z,102119.20
2022-10-16T22:20:23.595Z,102127.64
2022-10-16T22:22:51.263Z,102116.85
2022-10-16T22:25:19.014Z,102120.88
2022-10-16T22:27:46.725Z,102124.11
2022-10-16T22:30:14.482Z,102121.07
2022-10-16T22:32:42.197Z,102125.61
2022-10-16T22:35:10.215Z,102119.04
2022-10-16T22:37:37.955Z,102127.97
2022-10-16T22:40:05.982Z,102118.03
2022-10-16T22:42:33.694Z,102118.68
2022-10-16T22:45:01.437Z,102121.40
2022-10-16T22:47:29.764Z,102118.19
2022-10-16T22:49:57.830Z,102107.40
2022-10-16T22:52:25.919Z,102109.23
2022-10-16T22:54:53.843Z,102106.06
2022-10-16T22:57:21.598Z,102110.45
2022-10-16T22:59:49.906Z,102112.30
2022-10-16T23:02:17.680Z,102118.06
2022-10-16T23:04:45.408Z,102116.52
2022-10-16T23:07:13.144Z,102119.73
2022-10-16T23:09:41.087Z,102119.56
2022-10-16T23:12:08.854Z,102123.62
2022-10-16T23:14:36.600Z,102126.82
2022-10-16T23:17:04.474Z,102131.20
2022-10-16T23:19:32.240Z,102136.44
2022-10-16T23:21:59.988Z,102134.24
2022-10-16T23:24:27.824Z,102140.30
2022-10-16T23:26:55.527Z,102143.50
2022-10-16T23:29:23.257Z,102145.33
2022-10-16T23:31:50.965Z,102141.47
2022-10-16T23:34:18.799Z,102143.98
2022-10-16T23:36:46.582Z,102145.85
2022-10-16T23:39:14.304Z,102136.24
2022-10-16T23:41:42.047Z,102138.07
2022-10-16T23:44:10.044Z,102138.23
2022-10-16T23:46:37.933Z,102141.60
2022-10-16T23:49:05.727Z,102146.67
2022-10-16T23:51:33.510Z,102148.17
2022-10-16T23:54:01.228Z,102145.98
2022-10-16T23:56:28.966Z,102146.84
2022-10-16T23:58:56.741Z,102146.84
